Time;durP1;ratioP1;P1;durP2;ratioP2;P2;SDS_P1;SDS_P2;PMS_P1;PMS_P2;Temp;Humidity;BMP_temperature;BMP_pressure;BME280_temperature;BME280_humidity;BME280_pressure;Samples;Min_cycle;Max_cycle;Signal;HPM_P1;HPM_P2
2022/11/13 00:04:32;;;;;;;39.97;15.60;;;6.50;99.90;;;4.11;100.00;101762.22;10476339;28;20069;-82
2022/11/13 00:09:35;;;;;;;29.60;12.87;;;6.40;99.90;;;4.05;100.00;101755.53;10493650;28;20061;-83
2022/11/13 00:14:37;;;;;;;33.87;14.80;;;6.30;99.90;;;4.01;100.00;101756.63;10479462;28;20061;-83
2022/11/13 00:19:41;;;;;;;39.73;15.90;;;6.30;99.90;;;3.96;100.00;101753.44;10491692;28;20085;-83
2022/11/13 00:24:45;;;;;;;38.90;15.40;;;6.30;99.90;;;3.89;100.00;101746.81;10488751;28;20065;-83
2022/11/13 00:29:48;;;;;;;45.90;16.90;;;6.20;99.90;;;3.82;100.00;101743.69;10483530;28;20068;-83
2022/11/13 00:34:51;;;;;;;31.87;14.10;;;6.10;99.90;;;3.78;100.00;101752.69;10488890;28;20064;-83
2022/11/13 00:39:54;;;;;;;35.07;14.97;;;6.00;99.90;;;3.72;100.00;101755.69;10480111;28;20085;-82
2022/11/13 00:45:01;;;;;;;36.73;14.20;;;6.00;99.90;;;3.67;100.00;101749.81;10475206;28;20057;-82
2022/11/13 00:50:04;;;;;;;41.10;15.47;;;6.00;99.90;;;3.61;100.00;101743.13;10497452;28;20571;-83
2022/11/13 00:55:07;;;;;;;34.23;13.03;;;5.90;99.90;;;3.54;100.00;101740.91;10481087;28;20524;-83
2022/11/13 01:00:11;;;;;;;37.60;16.03;;;5.80;99.90;;;3.49;100.00;101739.38;10499241;28;20096;-83
2022/11/13 01:05:14;;;;;;;43.70;17.37;;;5.80;99.90;;;3.43;100.00;101739.72;10469413;28;20064;-83
2022/11/13 01:10:17;;;;;;;44.63;16.30;;;5.70;99.90;;;3.41;100.00;101752.09;10474174;28;20057;-83
2022/11/13 01:15:20;;;;;;;42.97;17.70;;;5.70;99.90;;;3.38;100.00;101739.13;10500396;28;20500;-83
2022/11/13 01:20:24;;;;;;;26.70;12.17;;;5.70;99.90;;;3.35;100.00;101747.16;10472292;28;20505;-83
2022/11/13 01:25:28;;;;;;;36.93;14.93;;;5.60;99.90;;;3.33;100.00;101740.31;10517857;28;20064;-84
2022/11/13 01:30:31;;;;;;;40.90;15.63;;;5.60;99.90;;;3.27;100.00;101728.34;10497802;28;20543;-83
2022/11/13 01:35:34;;;;;;;27.47;12.60;;;5.60;99.90;;;3.25;100.00;101737.25;10521043;28;20068;-84
2022/11/13 01:40:47;;;;;;;38.63;14.33;;;5.50;99.90;;;3.17;100.00;101727.16;10486797;28;20088;-83
2022/11/13 01:45:59;;;;;;;23.67;12.13;;;5.50;99.90;;;3.13;100.00;101736.16;10464546;28;20057;-84
2022/11/13 01:51:08;;;;;;;29.50;12.47;;;5.50;99.90;;;3.07;100.00;101718.09;10499164;28;20061;-83
2022/11/13 01:56:12;;;;;;;29.97;12.50;;;5.40;99.90;;;3.02;100.00;101704.34;10496653;28;20114;-83
2022/11/13 02:01:14;;;;;;;31.73;12.67;;;5.30;99.90;;;3.02;100.00;101707.81;10525348;28;20071;-83
2022/11/13 02:06:20;;;;;;;36.97;14.97;;;5.30;99.90;;;3.03;100.00;101699.00;10469932;28;20523;-84
2022/11/13 02:11:24;;;;;;;43.73;15.43;;;5.30;99.90;;;3.00;100.00;101701.81;10464915;28;20501;-84
2022/11/13 02:16:31;;;;;;;32.47;14.23;;;5.30;99.90;;;2.93;100.00;101709.16;10484886;28;20061;-83
2022/11/13 02:21:52;;;;;;;37.93;15.20;;;5.20;99.90;;;2.93;100.00;101710.94;10486346;28;20164;-83
2022/11/13 02:27:01;;;;;;;28.07;11.27;;;5.20;99.90;;;2.85;100.00;101700.00;10460372;28;20061;-84
2022/11/13 02:32:04;;;;;;;29.33;12.97;;;5.20;99.90;;;2.79;100.00;101695.91;10484484;28;20060;-83
2022/11/13 02:37:08;;;;;;;38.17;15.23;;;5.10;99.90;;;2.71;100.00;101698.09;10508908;28;20099;-83
2022/11/13 02:42:11;;;;;;;29.17;12.70;;;5.00;99.90;;;2.65;100.00;101698.44;10489164;28;20061;-83
2022/11/13 02:47:14;;;;;;;37.83;13.40;;;5.00;99.90;;;2.54;100.00;101706.84;10484707;28;20096;-83
2022/11/13 02:52:16;;;;;;;39.53;15.40;;;4.90;99.90;;;2.46;100.00;101692.41;10495847;28;20243;-83
2022/11/13 02:57:19;;;;;;;38.07;12.97;;;4.80;99.90;;;2.36;100.00;101695.53;10495999;28;20065;-83
2022/11/13 03:02:23;;;;;;;37.10;13.30;;;4.70;99.90;;;2.30;100.00;101690.59;10478698;28;20060;-83
2022/11/13 03:07:26;;;;;;;45.60;16.23;;;4.70;99.90;;;2.33;100.00;101687.81;10476647;28;20218;-83
2022/11/13 03:12:29;;;;;;;34.20;12.70;;;4.70;99.90;;;2.42;100.00;101683.88;10462679;28;20115;-82
2022/11/13 03:17:34;;;;;;;35.77;12.60;;;4.70;99.90;;;2.60;100.00;101684.69;10467882;28;20088;-82
2022/11/13 03:22:36;;;;;;;66.97;15.77;;;4.90;99.90;;;2.82;100.00;101690.53;10481968;28;20064;-82
2022/11/13 03:27:39;;;;;;;69.63;14.07;;;5.10;99.90;;;3.00;100.00;101677.31;10480054;28;20052;-82
2022/11/13 03:32:42;;;;;;;107.93;17.33;;;5.30;99.90;;;3.21;100.00;101686.66;10485862;28;20111;-82
2022/11/13 03:37:45;;;;;;;65.40;14.53;;;5.50;99.90;;;3.40;100.00;101691.72;10453425;28;20064;-82
2022/11/13 03:42:48;;;;;;;54.60;14.97;;;5.70;99.90;;;3.60;100.00;101695.88;10484230;28;20063;-82
2022/11/13 03:47:51;;;;;;;58.50;14.17;;;5.80;99.90;;;3.68;100.00;101686.63;10480940;28;20089;-84
2022/11/13 03:52:54;;;;;;;71.77;13.20;;;6.00;99.90;;;3.73;100.00;101681.13;10464868;28;20072;-82
2022/11/13 03:57:57;;;;;;;58.87;13.57;;;6.00;99.90;;;3.78;100.00;101676.44;10478113;28;20061;-83
2022/11/13 04:03:00;;;;;;;84.70;14.93;;;6.10;99.90;;;3.87;100.00;101683.78;10467025;28;20136;-83
2022/11/13 04:08:03;;;;;;;99.83;14.73;;;6.10;99.90;;;3.92;100.00;101679.13;10497353;28;20057;-83
2022/11/13 04:13:06;;;;;;;50.97;15.50;;;6.20;99.90;;;3.91;100.00;101671.31;10464656;28;20413;-83
2022/11/13 04:18:09;;;;;;;40.90;12.83;;;6.20;99.90;;;3.89;100.00;101684.53;10491683;28;20077;-82
2022/11/13 04:23:14;;;;;;;25.67;10.73;;;6.20;99.90;;;3.82;100.00;101683.19;10478262;28;20067;-83
2022/11/13 04:28:17;;;;;;;39.03;11.03;;;6.20;99.90;;;3.78;100.00;101681.72;10445650;28;20077;-83
2022/11/13 04:33:20;;;;;;;43.07;10.67;;;6.10;99.90;;;3.74;100.00;101674.91;10495132;28;20107;-83
2022/11/13 04:38:23;;;;;;;45.37;11.37;;;6.10;99.90;;;3.73;100.00;101689.00;10515160;28;20075;-83
2022/11/13 04:43:27;;;;;;;41.70;11.80;;;6.00;99.90;;;3.68;100.00;101696.31;10472474;28;20061;-83
2022/11/13 04:48:30;;;;;;;33.63;9.57;;;5.90;99.90;;;3.66;100.00;101696.41;10474747;28;20061;-83
2022/11/13 04:53:33;;;;;;;32.00;9.80;;;5.90;99.90;;;3.71;100.00;101689.06;10481123;28;20084;-83
2022/11/13 04:58:36;;;;;;;63.90;13.03;;;6.00;99.90;;;3.72;100.00;101672.38;10522564;28;20068;-83
2022/11/13 05:03:39;;;;;;;50.00;11.80;;;6.00;99.90;;;3.74;100.00;101683.66;10475943;28;20080;-83
2022/11/13 05:08:42;;;;;;;29.73;9.33;;;6.00;99.90;;;3.72;100.00;101682.06;10479657;28;20554;-84
2022/11/13 05:13:45;;;;;;;44.13;10.87;;;5.90;99.90;;;3.65;100.00;101686.78;10495367;28;20093;-83
2022/11/13 05:18:49;;;;;;;44.97;13.73;;;5.90;99.90;;;3.61;100.00;101692.31;10461428;28;20522;-82
2022/11/13 05:23:51;;;;;;;45.93;12.57;;;5.90;99.90;;;3.48;100.00;101690.41;10493644;28;20061;-81
2022/11/13 05:28:59;;;;;;;33.93;11.80;;;5.70;99.90;;;3.42;100.00;101695.16;10480819;28;20130;-81
2022/11/13 05:34:04;;;;;;;42.37;11.97;;;5.60;99.90;;;3.37;100.00;101687.50;10474199;28;20496;-83
2022/11/13 05:39:08;;;;;;;32.93;9.47;;;5.60;99.90;;;3.37;100.00;101684.88;10474236;28;20121;-84
2022/11/13 05:44:11;;;;;;;32.17;10.70;;;5.60;99.90;;;3.36;100.00;101675.31;10478449;28;20061;-84
2022/11/13 05:49:14;;;;;;;89.70;20.20;;;5.60;99.90;;;3.44;100.00;101680.97;10500117;28;20513;-84
2022/11/13 05:54:17;;;;;;;67.53;17.67;;;5.70;99.90;;;3.47;100.00;101678.16;10477678;28;20084;-84
2022/11/13 05:59:20;;;;;;;74.70;21.93;;;5.70;99.90;;;3.57;100.00;101680.28;10464331;28;20856;-84
2022/11/13 06:04:23;;;;;;;53.83;17.63;;;5.80;99.90;;;3.63;100.00;101677.31;10489445;28;20061;-83
2022/11/13 06:09:26;;;;;;;48.80;13.53;;;5.90;99.90;;;3.73;100.00;101673.22;10473410;28;20064;-82
2022/11/13 06:14:29;;;;;;;64.20;15.63;;;6.00;99.90;;;3.83;100.00;101674.38;10472434;28;20159;-80
2022/11/13 06:19:31;;;;;;;54.73;15.90;;;6.10;99.90;;;3.89;100.00;101684.53;10496076;28;20068;-80
2022/11/13 06:24:35;;;;;;;62.30;15.60;;;6.10;99.90;;;3.95;100.00;101688.59;10487120;28;20053;-81
2022/11/13 06:29:38;;;;;;;71.47;14.33;;;6.20;99.90;;;4.01;100.00;101683.81;10483479;28;20067;-81
2022/11/13 06:34:41;;;;;;;52.03;15.20;;;6.20;99.90;;;4.05;100.00;101681.03;10477217;28;20152;-81
2022/11/13 06:39:44;;;;;;;37.13;11.03;;;6.30;99.90;;;4.13;100.00;101684.88;10470118;28;20075;-80
2022/11/13 06:44:47;;;;;;;47.17;13.27;;;6.30;99.90;;;4.17;100.00;101681.16;10484312;28;20060;-81
2022/11/13 06:49:50;;;;;;;55.37;14.10;;;6.30;99.90;;;4.23;100.00;101683.41;10515012;28;20090;-81
2022/11/13 06:54:53;;;;;;;45.37;11.93;;;6.40;99.90;;;4.28;100.00;101691.06;10535659;28;20111;-81
2022/11/13 06:59:56;;;;;;;55.37;14.17;;;6.40;99.90;;;4.29;100.00;101692.75;10471337;28;20068;-82
2022/11/13 07:04:59;;;;;;;36.10;11.23;;;6.50;99.90;;;4.41;100.00;101702.53;10485334;28;20064;-82
2022/11/13 07:10:02;;;;;;;51.07;13.27;;;6.60;99.90;;;4.50;100.00;101704.63;10465763;28;20473;-83
2022/11/13 07:15:05;;;;;;;30.57;9.33;;;6.70;99.90;;;4.56;100.00;101703.41;10493827;28;20065;-81
2022/11/13 07:20:09;;;;;;;50.67;10.63;;;6.70;99.90;;;4.56;100.00;101695.53;10506679;28;20065;-80
2022/11/13 07:25:12;;;;;;;20.43;8.77;;;6.80;99.90;;;4.69;100.00;101703.53;10452372;28;20061;-81
2022/11/13 07:30:16;;;;;;;37.40;10.80;;;6.90;99.90;;;4.81;100.00;101695.72;10490686;28;20154;-83
2022/11/13 07:35:20;;;;;;;26.13;9.77;;;7.00;99.90;;;4.93;100.00;101703.81;10489839;28;20060;-83
2022/11/13 07:40:23;;;;;;;30.60;10.93;;;7.00;99.90;;;5.06;100.00;101694.19;10497839;28;20135;-83
2022/11/13 07:45:27;;;;;;;35.90;11.03;;;7.20;99.90;;;5.12;100.00;101695.59;10511899;28;20428;-83
2022/11/13 07:50:34;;;;;;;23.33;10.70;;;7.30;99.90;;;5.15;100.00;101705.94;10478437;28;20065;-81
2022/11/13 07:55:37;;;;;;;24.73;10.30;;;7.30;99.90;;;5.16;100.00;101704.97;10503440;28;20493;-80
2022/11/13 08:00:41;;;;;;;25.73;10.00;;;7.30;99.90;;;5.24;100.00;101700.09;10477675;28;20061;-82
2022/11/13 08:05:44;;;;;;;28.97;10.47;;;7.40;99.90;;;5.32;100.00;101703.09;10522978;28;20057;-81
2022/11/13 08:10:47;;;;;;;24.60;10.90;;;7.50;99.90;;;5.41;100.00;101701.66;10498271;28;20146;-81
2022/11/13 08:15:50;;;;;;;26.47;12.17;;;7.50;99.90;;;5.51;100.00;101705.38;10476398;28;20071;-81
2022/11/13 08:20:53;;;;;;;30.97;13.97;;;7.60;99.90;;;5.70;100.00;101702.41;10498091;28;20069;-82
2022/11/13 08:25:57;;;;;;;33.60;14.07;;;7.80;99.90;;;5.80;100.00;101703.50;10494589;28;20496;-81
2022/11/13 08:31:01;;;;;;;35.10;13.87;;;8.00;99.90;;;5.96;100.00;101695.47;10468542;28;20058;-81
2022/11/13 08:36:05;;;;;;;33.13;12.33;;;8.10;99.90;;;6.03;100.00;101696.75;10493092;28;20061;-81
2022/11/13 08:41:08;;;;;;;24.70;10.13;;;8.20;99.90;;;6.09;100.00;101685.78;10472931;28;20064;-81
2022/11/13 08:46:11;;;;;;;21.10;11.00;;;8.20;99.90;;;6.17;100.00;101683.47;10470178;28;20057;-81
2022/11/13 08:51:15;;;;;;;20.23;9.93;;;8.30;99.90;;;6.29;100.00;101685.28;10485369;28;20127;-81
2022/11/13 08:56:18;;;;;;;21.07;10.50;;;8.40;99.90;;;6.39;100.00;101682.88;10487323;28;20522;-81
2022/11/13 09:01:21;;;;;;;20.03;10.33;;;8.60;99.90;;;6.52;100.00;101694.28;10447473;28;20061;-81
2022/11/13 09:06:24;;;;;;;29.30;14.20;;;8.70;99.90;;;6.61;100.00;101693.66;10467833;28;20061;-81
2022/11/13 09:11:27;;;;;;;22.00;10.67;;;8.80;99.90;;;6.70;100.00;101689.53;10490911;28;20095;-81
2022/11/13 09:16:33;;;;;;;25.67;11.50;;;8.90;99.90;;;6.82;100.00;101685.19;10494592;28;20151;-80
2022/11/13 09:21:36;;;;;;;24.23;11.13;;;9.00;99.90;;;6.87;100.00;101689.19;10484709;28;20081;-80
2022/11/13 09:26:39;;;;;;;21.20;11.93;;;9.10;99.90;;;6.85;100.00;101684.97;10474168;28;20119;-81
2022/11/13 09:31:41;;;;;;;26.53;11.27;;;9.10;99.90;;;7.00;100.00;101680.41;10491078;28;20092;-80
2022/11/13 09:36:45;;;;;;;21.23;10.73;;;9.20;99.90;;;7.11;100.00;101676.03;10482405;28;20072;-80
2022/11/13 09:42:21;;;;;;;19.03;10.70;;;9.30;99.90;;;7.28;100.00;101676.66;10479314;28;20065;-80
2022/11/13 09:47:36;;;;;;;25.03;13.57;;;9.40;99.90;;;7.35;100.00;101667.31;10467544;28;20061;-81
2022/11/13 09:52:43;;;;;;;25.73;12.40;;;9.50;99.90;;;7.49;100.00;101664.50;10482475;28;20060;-81
2022/11/13 09:58:05;;;;;;;26.47;13.57;;;9.60;99.90;;;7.61;100.00;101647.72;10516304;28;20053;-80
2022/11/13 10:03:45;;;;;;;20.93;11.57;;;9.70;99.90;;;7.80;100.00;101639.28;10508742;28;20428;-80
2022/11/13 10:09:27;;;;;;;21.90;12.37;;;9.90;99.90;;;7.98;100.00;101635.25;10505689;28;20064;-80
2022/11/13 10:14:44;;;;;;;32.03;15.33;;;10.10;99.90;;;8.14;100.00;101623.47;10496319;28;20177;-80
2022/11/13 10:20:14;;;;;;;25.13;12.53;;;10.30;99.90;;;8.35;100.00;101626.28;10466351;28;20492;-80
2022/11/13 10:25:22;;;;;;;39.03;16.40;;;10.50;99.90;;;8.44;100.00;101610.53;10477741;28;20053;-80
2022/11/13 10:30:28;;;;;;;21.83;12.37;;;10.70;99.90;;;8.41;100.00;101605.50;10515929;28;20544;-80
2022/11/13 10:35:37;;;;;;;19.83;9.67;;;10.70;99.90;;;8.41;100.00;101607.31;10491601;28;20057;-86
2022/11/13 10:40:40;;;;;;;21.90;12.57;;;10.70;99.90;;;8.41;100.00;101586.97;10492136;28;20061;-84
2022/11/13 10:45:58;;;;;;;28.83;12.87;;;10.70;99.90;;;8.35;100.00;101589.22;10494487;28;20057;-85
2022/11/13 10:51:28;;;;;;;23.77;11.60;;;10.70;99.90;;;8.37;100.00;101574.06;10470907;28;20123;-84
2022/11/13 10:56:34;;;;;;;17.57;10.37;;;10.70;99.90;;;8.46;100.00;101576.84;10466083;28;20056;-84
2022/11/13 11:01:41;;;;;;;20.17;10.23;;;10.70;99.90;;;8.55;100.00;101562.88;10520144;28;20147;-84
2022/11/13 11:06:44;;;;;;;18.73;10.13;;;10.70;99.90;;;8.67;100.00;101555.75;10498980;28;20143;-83
2022/11/13 11:12:22;;;;;;;21.53;10.87;;;10.80;99.90;;;8.71;100.00;101553.72;10492666;28;20413;-82
2022/11/13 11:18:00;;;;;;;22.80;11.60;;;10.90;99.90;;;8.84;100.00;101544.63;10488063;28;20064;-82
2022/11/13 11:23:29;;;;;;;22.47;11.60;;;11.00;99.90;;;8.96;100.00;101547.25;10510741;28;20057;-80
2022/11/13 11:28:59;;;;;;;29.37;13.03;;;11.10;99.90;;;9.00;100.00;101538.94;10492402;28;20139;-84
2022/11/13 11:34:15;;;;;;;25.27;11.30;;;11.10;99.90;;;9.01;100.00;101537.97;10504348;28;20067;-87
2022/11/13 11:39:47;;;;;;;29.60;13.63;;;11.10;99.90;;;9.12;100.00;101521.19;10483833;28;20107;-87
2022/11/13 11:45:03;;;;;;;23.97;12.50;;;11.20;99.90;;;9.22;100.00;101518.59;10495322;28;20061;-85
2022/11/13 11:50:17;;;;;;;24.00;12.93;;;11.30;99.90;;;9.30;100.00;101508.22;10484370;28;20064;-81
2022/11/13 11:56:03;;;;;;;25.97;13.27;;;11.40;99.90;;;9.34;100.00;101509.63;10486461;28;20069;-81
2022/11/13 12:01:36;;;;;;;31.90;16.73;;;11.50;99.90;;;9.42;100.00;101493.94;10478226;28;20060;-82
2022/11/13 12:06:59;;;;;;;22.97;11.40;;;11.50;99.90;;;9.49;100.00;101494.25;10459265;28;20056;-84
2022/11/13 12:12:17;;;;;;;24.20;11.93;;;11.60;99.90;;;9.52;100.00;101491.31;10483031;28;20101;-82
2022/11/13 12:17:54;;;;;;;26.63;13.23;;;11.70;99.90;;;9.49;100.00;101479.16;10456130;28;20424;-83
2022/11/13 12:23:27;;;;;;;28.70;14.37;;;11.70;99.90;;;9.42;100.00;101480.66;10479205;28;20061;-83
2022/11/13 12:29:05;;;;;;;32.07;15.53;;;11.60;99.90;;;9.39;100.00;101476.44;10505822;28;20064;-83
2022/11/13 12:34:33;;;;;;;37.93;17.53;;;11.60;99.90;;;9.50;100.00;101456.13;10461635;28;20069;-82
2022/11/13 12:39:59;;;;;;;31.30;15.53;;;11.60;99.90;;;9.52;100.00;101443.56;10455312;28;20064;-83
2022/11/13 12:45:26;;;;;;;40.90;18.83;;;11.70;99.90;;;9.50;100.00;101440.19;10496368;28;20144;-81
2022/11/13 12:50:30;;;;;;;41.03;19.23;;;11.70;99.90;;;9.48;100.00;101429.72;10487182;28;20060;-84
2022/11/13 12:55:39;;;;;;;34.53;17.57;;;11.60;99.90;;;9.49;100.00;101417.31;10499443;28;20057;-83
2022/11/13 13:00:57;;;;;;;35.33;17.43;;;11.60;99.90;;;9.63;100.00;101423.09;10467228;28;20528;-83
2022/11/13 13:06:07;;;;;;;42.50;21.97;;;11.70;99.90;;;9.73;100.00;101419.66;10514816;28;20061;-83
2022/11/13 13:11:47;;;;;;;33.13;16.87;;;11.80;99.90;;;9.89;100.00;101414.69;10488677;28;20065;-84
2022/11/13 13:16:50;;;;;;;37.10;17.37;;;12.00;99.90;;;9.98;100.00;101408.56;10468393;28;20061;-84
2022/11/13 13:21:54;;;;;;;29.80;15.90;;;12.20;99.90;;;9.94;100.00;101401.84;10512296;28;20145;-84
2022/11/13 13:27:00;;;;;;;26.67;14.67;;;12.10;99.90;;;9.85;100.00;101403.50;10515131;28;20104;-84
2022/11/13 13:32:26;;;;;;;29.67;14.97;;;12.00;99.90;;;9.74;100.00;101395.63;10516049;28;20084;-83
2022/11/13 13:38:07;;;;;;;28.47;14.63;;;11.90;99.90;;;9.60;100.00;101398.66;10524108;28;20107;-82
2022/11/13 13:43:40;;;;;;;46.83;24.87;;;11.70;99.90;;;9.45;100.00;101395.47;10468966;28;20069;-81
2022/11/13 13:48:46;;;;;;;33.40;17.70;;;11.60;99.90;;;9.33;100.00;101392.06;10502245;28;20059;-81
2022/11/13 13:53:50;;;;;;;36.57;19.63;;;11.50;99.90;;;9.23;100.00;101385.84;10480026;28;20140;-81
2022/11/13 13:58:53;;;;;;;43.63;22.00;;;11.30;99.90;;;9.16;100.00;101390.00;10494054;28;20065;-81
2022/11/13 14:04:17;;;;;;;38.93;21.80;;;11.30;99.90;;;9.09;100.00;101389.69;10472915;28;20149;-82
2022/11/13 14:09:25;;;;;;;49.53;26.37;;;11.20;99.90;;;9.01;100.00;101380.69;10498539;28;20590;-81
2022/11/13 14:14:29;;;;;;;45.40;23.80;;;11.20;99.90;;;8.95;100.00;101366.16;10484501;28;20061;-81
2022/11/13 14:19:32;;;;;;;51.07;27.50;;;11.10;99.90;;;8.89;100.00;101369.31;10487868;28;20130;-80
2022/11/13 14:24:52;;;;;;;56.03;27.97;;;11.00;99.90;;;8.78;100.00;101366.72;10502681;28;21164;-81
2022/11/13 14:30:00;;;;;;;54.63;28.03;;;10.90;99.90;;;8.61;100.00;101369.91;10483397;28;20056;-82
2022/11/13 14:35:06;;;;;;;56.57;27.50;;;10.80;99.90;;;8.41;100.00;101363.63;10487918;28;20064;-82
2022/11/13 14:40:32;;;;;;;63.03;29.43;;;10.60;99.90;;;8.20;100.00;101369.63;10490405;28;20413;-82
2022/11/13 14:45:35;;;;;;;73.07;37.03;;;10.40;99.90;;;8.00;100.00;101360.66;10500244;28;20053;-82
2022/11/13 14:50:50;;;;;;;40.23;23.20;;;10.20;99.90;;;7.79;100.00;101363.19;10517659;28;20083;-82
2022/11/13 14:55:57;;;;;;;31.30;18.03;;;10.00;99.90;;;7.63;100.00;101357.44;10486834;28;20581;-82
2022/11/13 15:01:24;;;;;;;55.27;26.67;;;9.80;99.90;;;7.43;100.00;101368.72;10482019;28;20064;-82
2022/11/13 15:06:38;;;;;;;49.93;24.90;;;9.60;99.90;;;7.23;100.00;101365.81;10485232;28;20053;-82
2022/11/13 15:11:42;;;;;;;36.27;19.07;;;9.40;99.90;;;7.05;100.00;101363.75;10506656;28;20199;-82
2022/11/13 15:16:47;;;;;;;63.53;27.10;;;9.20;99.90;;;6.89;100.00;101369.34;10513635;28;20065;-82
2022/11/13 15:21:51;;;;;;;43.07;21.10;;;9.10;99.90;;;6.74;100.00;101362.59;10458666;28;20063;-82
2022/11/13 15:27:18;;;;;;;51.63;26.70;;;8.90;99.90;;;6.56;100.00;101368.28;10506215;28;20055;-82
2022/11/13 15:32:21;;;;;;;30.53;17.23;;;8.80;99.90;;;6.38;100.00;101349.34;10495882;28;20099;-82
2022/11/13 15:37:24;;;;;;;28.63;15.47;;;8.60;99.90;;;6.24;100.00;101351.28;10480628;28;20424;-81
2022/11/13 15:42:33;;;;;;;35.27;17.27;;;8.50;99.90;;;6.08;100.00;101356.84;10462263;28;20064;-83
2022/11/13 15:47:36;;;;;;;58.33;27.47;;;8.40;99.90;;;5.94;100.00;101355.22;10507639;28;20057;-84
2022/11/13 15:52:43;;;;;;;60.37;29.27;;;8.20;99.90;;;5.78;100.00;101359.88;10501165;28;20084;-84
2022/11/13 15:57:47;;;;;;;48.77;25.80;;;8.00;99.90;;;5.62;100.00;101366.19;10460376;28;20059;-83
2022/11/13 16:02:56;;;;;;;65.77;32.63;;;7.90;99.90;;;5.48;100.00;101354.94;10497014;28;20420;-84
2022/11/13 16:07:59;;;;;;;78.97;38.07;;;7.70;99.90;;;5.33;100.00;101364.75;10476941;28;20084;-84
2022/11/13 16:13:02;;;;;;;66.93;34.27;;;7.60;99.90;;;5.20;100.00;101377.06;10474402;28;20098;-83
2022/11/13 16:18:14;;;;;;;66.83;30.53;;;7.50;99.90;;;5.05;100.00;101369.28;10512447;28;20083;-83
2022/11/13 16:23:17;;;;;;;55.67;22.83;;;7.30;99.90;;;4.92;100.00;101376.31;10501437;28;20049;-84
2022/11/13 16:28:20;;;;;;;47.30;21.13;;;7.20;99.90;;;4.79;100.00;101383.34;10492884;28;20139;-84
2022/11/13 16:33:23;;;;;;;51.47;24.87;;;7.10;99.90;;;4.67;100.00;101376.25;10488414;28;20068;-84
2022/11/13 16:38:27;;;;;;;52.63;22.07;;;7.00;99.90;;;4.52;100.00;101370.22;10467705;28;20093;-85
2022/11/13 16:43:29;;;;;;;49.80;21.93;;;6.80;99.90;;;4.40;100.00;101363.97;10479838;28;20148;-84
2022/11/13 16:48:33;;;;;;;61.70;28.13;;;6.70;99.90;;;4.32;100.00;101361.00;10489145;28;20061;-83
2022/11/13 16:53:36;;;;;;;92.73;42.27;;;6.60;99.90;;;4.25;100.00;101346.50;10497158;28;20597;-83
2022/11/13 16:58:39;;;;;;;62.30;30.73;;;6.50;99.90;;;4.18;100.00;101342.59;10504681;28;20057;-83
2022/11/13 17:03:42;;;;;;;119.57;59.40;;;6.50;99.90;;;4.14;100.00;101356.88;10487037;28;20056;-84
2022/11/13 17:08:49;;;;;;;104.73;49.73;;;6.40;99.90;;;4.08;100.00;101349.38;10485103;28;20065;-84
2022/11/13 17:13:55;;;;;;;71.00;36.23;;;6.40;99.90;;;4.03;100.00;101350.53;10474593;28;20069;-83
2022/11/13 17:18:59;;;;;;;117.70;45.87;;;6.30;99.90;;;4.02;100.00;101348.84;10508056;28;20053;-83
2022/11/13 17:24:02;;;;;;;67.53;30.20;;;6.30;99.90;;;4.02;100.00;101351.50;10476905;28;20056;-84
2022/11/13 17:29:06;;;;;;;78.23;31.47;;;6.30;99.90;;;4.01;100.00;101352.41;10463756;28;20068;-83
2022/11/13 17:34:09;;;;;;;78.00;33.13;;;6.30;99.90;;;3.98;100.00;101355.25;10500056;28;20065;-83
2022/11/13 17:39:12;;;;;;;63.37;30.07;;;6.30;99.90;;;3.93;100.00;101344.16;10466719;28;20089;-84
2022/11/13 17:44:16;;;;;;;47.60;23.93;;;6.20;99.90;;;3.87;100.00;101348.97;10504148;28;20068;-83
2022/11/13 17:49:19;;;;;;;51.87;23.60;;;6.20;99.90;;;3.80;100.00;101347.69;10484969;28;20057;-84
2022/11/13 17:54:24;;;;;;;49.53;23.20;;;6.10;99.90;;;3.73;100.00;101341.97;10521482;28;20060;-83
2022/11/13 17:59:27;;;;;;;59.00;27.17;;;6.00;99.90;;;3.65;100.00;101345.03;10472076;28;20064;-83
2022/11/13 18:04:30;;;;;;;75.33;34.67;;;6.00;99.90;;;3.57;100.00;101346.47;10464488;28;20476;-84
2022/11/13 18:09:34;;;;;;;67.10;28.07;;;5.90;99.90;;;3.49;100.00;101345.16;10505214;28;20061;-83
2022/11/13 18:14:36;;;;;;;43.97;21.13;;;5.80;99.90;;;3.42;100.00;101348.28;10504026;28;20076;-84
2022/11/13 18:19:39;;;;;;;46.57;21.17;;;5.80;99.90;;;3.34;100.00;101350.50;10480725;28;20084;-83
2022/11/13 18:24:42;;;;;;;53.80;23.23;;;5.70;99.90;;;3.26;100.00;101343.09;10500944;28;21052;-82
2022/11/13 18:29:45;;;;;;;73.57;34.60;;;5.60;99.90;;;3.20;100.00;101353.97;10486502;28;20416;-83
2022/11/13 18:34:48;;;;;;;58.47;23.77;;;5.50;99.90;;;3.16;100.00;101355.94;10501527;28;20076;-83
2022/11/13 18:39:52;;;;;;;75.37;32.53;;;5.50;99.90;;;3.13;100.00;101365.78;10482460;28;20061;-85
2022/11/13 18:44:55;;;;;;;76.20;36.13;;;5.40;99.90;;;3.08;100.00;101366.06;10488497;28;20057;-85
2022/11/13 18:49:58;;;;;;;61.83;26.77;;;5.40;99.90;;;3.07;100.00;101364.38;10488632;28;20060;-79
2022/11/13 18:55:01;;;;;;;55.23;24.17;;;5.40;99.90;;;3.08;100.00;101370.47;10505105;28;20107;-82
2022/11/13 19:00:04;;;;;;;76.37;35.10;;;5.40;99.90;;;3.06;100.00;101367.06;10495766;28;20061;-81
2022/11/13 19:05:08;;;;;;;63.53;31.33;;;5.40;99.90;;;3.12;100.00;101378.09;10492726;28;20107;-82
2022/11/13 19:10:11;;;;;;;73.67;35.77;;;5.40;99.90;;;3.20;100.00;101375.84;10488036;28;20103;-82
2022/11/13 19:15:14;;;;;;;81.93;33.20;;;5.50;99.90;;;3.29;100.00;101369.16;10497121;28;20402;-82
2022/11/13 19:20:17;;;;;;;76.00;30.43;;;5.50;99.90;;;3.38;100.00;101381.75;10515418;28;20063;-82
2022/11/13 19:25:21;;;;;;;165.63;38.93;;;5.60;99.90;;;3.49;100.00;101370.59;10500211;28;20091;-82
2022/11/13 19:30:24;;;;;;;69.80;24.47;;;5.80;99.90;;;3.59;100.00;101368.25;10485776;28;20069;-81
2022/11/13 19:35:27;;;;;;;52.10;20.00;;;5.80;99.90;;;3.67;100.00;101366.00;10484904;28;20386;-82
2022/11/13 19:40:30;;;;;;;69.30;26.27;;;5.90;99.90;;;3.74;100.00;101360.25;10476675;28;20057;-81
2022/11/13 19:45:34;;;;;;;74.73;21.23;;;6.00;99.90;;;3.82;100.00;101372.91;10467770;28;20052;-83
2022/11/13 19:50:38;;;;;;;56.93;23.30;;;6.10;99.90;;;3.86;100.00;101377.06;10496376;28;20057;-83
2022/11/13 19:55:41;;;;;;;61.70;25.03;;;6.10;99.90;;;3.92;100.00;101376.66;10445030;28;20065;-82
2022/11/13 20:00:44;;;;;;;48.33;17.80;;;6.20;99.90;;;3.94;100.00;101371.31;10490100;28;20142;-83
2022/11/13 20:05:53;;;;;;;60.93;20.30;;;6.20;99.90;;;3.99;100.00;101374.50;10461919;28;20067;-82
2022/11/13 20:11:09;;;;;;;59.80;16.20;;;6.30;99.90;;;4.04;100.00;101377.69;10519067;28;20063;-82
2022/11/13 20:16:14;;;;;;;51.83;15.67;;;6.30;99.90;;;4.07;100.00;101372.22;10475985;28;20061;-81
2022/11/13 20:21:28;;;;;;;35.43;13.30;;;6.30;99.90;;;4.13;100.00;101378.88;10486894;28;20091;-85
2022/11/13 20:26:32;;;;;;;59.77;17.23;;;6.40;99.90;;;4.14;100.00;101375.28;10494258;28;20057;-85
2022/11/13 20:31:35;;;;;;;64.87;15.53;;;6.40;99.90;;;4.17;100.00;101373.31;10487288;28;20559;-83
2022/11/13 20:36:38;;;;;;;113.57;28.23;;;6.40;99.90;;;4.18;100.00;101358.38;10483858;28;21093;-87
2022/11/13 20:41:41;;;;;;;47.93;14.93;;;6.50;99.90;;;4.22;100.00;101365.16;10486472;28;20111;-87
2022/11/13 20:46:44;;;;;;;81.40;15.67;;;6.50;99.90;;;4.24;100.00;101353.56;10486767;28;20512;-87
2022/11/13 20:51:47;;;;;;;76.93;14.83;;;6.50;99.90;;;4.28;100.00;101364.75;10497718;28;20062;-87